Time;durP1;ratioP1;P1;durP2;ratioP2;P2;SDS_P1;SDS_P2;PMS_P1;PMS_P2;Temp;Humidity;BMP_temperature;BMP_pressure;BME280_temperature;BME280_humidity;BME280_pressure;Samples;Min_cycle;Max_cycle;Signal;HPM_P1;HPM_P2
2022/11/28 00:01:36;;;;;;;;;;;;;;;3.98;100.00;96345.41;5095853;28;19951;-79
2022/11/28 00:04:03;;;;;;;;;;;;;;;3.95;100.00;96335.38;5095162;28;20318;-78
2022/11/28 00:06:29;;;;;;;;;;;;;;;3.95;100.00;96338.78;5095465;28;19954;-78
2022/11/28 00:08:57;;;;;;;;;;;;;;;3.93;100.00;96332.97;5095685;28;19958;-78
2022/11/28 00:11:23;;;;;;;;;;;;;;;3.83;100.00;96330.63;5094496;28;19946;-78
2022/11/28 00:13:48;;;;;;;;;;;;;;;3.76;100.00;96337.53;5077017;28;20038;-78
2022/11/28 00:16:16;;;;;;;;;;;;;;;3.75;100.00;96335.09;5095223;28;20425;-78
2022/11/28 00:18:42;;;;;;;;;;;;;;;3.76;100.00;96326.31;5094358;28;20424;-78
2022/11/28 00:21:09;;;;;;;;;;;;;;;3.77;100.00;96327.94;5095743;28;19961;-78
2022/11/28 00:23:35;;;;;;;;;;;;;;;3.80;100.00;96323.22;5095331;28;20317;-78
2022/11/28 00:26:02;;;;;;;;;;;;;;;3.82;100.00;96320.41;5095389;28;19977;-78
2022/11/28 00:28:28;;;;;;;;;;;;;;;3.84;100.00;96319.28;5095161;28;19949;-78
2022/11/28 00:30:54;;;;;;;;;;;;;;;3.85;100.00;96313.09;5095282;28;20020;-78
2022/11/28 00:33:20;;;;;;;;;;;;;;;3.85;100.00;96318.28;5094770;28;20450;-79
2022/11/28 00:35:46;;;;;;;;;;;;;;;3.87;100.00;96310.34;5095410;28;19973;-78
2022/11/28 00:38:12;;;;;;;;;;;;;;;3.87;100.00;96307.75;5095152;28;19956;-78
2022/11/28 00:40:38;;;;;;;;;;;;;;;3.88;100.00;96301.56;5094979;28;20006;-78
2022/11/28 00:43:04;;;;;;;;;;;;;;;3.88;100.00;96303.34;5093727;28;19953;-78
2022/11/28 00:45:30;;;;;;;;;;;;;;;3.88;100.00;96308.53;5076900;28;20008;-78
2022/11/28 00:47:56;;;;;;;;;;;;;;;3.89;100.00;96299.78;5095007;28;20395;-78
2022/11/28 00:50:22;;;;;;;;;;;;;;;3.87;100.00;96294.78;5093571;28;19952;-78
2022/11/28 00:52:48;;;;;;;;;;;;;;;3.88;100.00;96298.16;5094115;28;19954;-78
2022/11/28 00:55:13;;;;;;;;;;;;;;;3.85;100.00;96283.75;5127669;27;20427;-78
2022/11/28 00:57:39;;;;;;;;;;;;;;;3.84;100.00;96290.75;5094570;28;20004;-78
2022/11/28 01:00:06;;;;;;;;;;;;;;;3.85;100.00;96284.56;5094493;28;20372;-78
2022/11/28 01:02:31;;;;;;;;;;;;;;;3.84;100.00;96277.78;5094588;28;20414;-78
2022/11/28 01:04:58;;;;;;;;;;;;;;;3.83;100.00;96273.56;5093338;28;19985;-78
2022/11/28 01:07:27;;;;;;;;;;;;;;;3.85;100.00;96284.56;5093423;28;20020;-78
2022/11/28 01:09:53;;;;;;;;;;;;;;;3.85;100.00;96273.38;5095452;28;19956;-78
2022/11/28 01:12:19;;;;;;;;;;;;;;;3.85;100.00;96281.97;5094429;28;20379;-79
2022/11/28 01:14:45;;;;;;;;;;;;;;;3.85;100.00;96278.56;5094305;28;19964;-78
2022/11/28 01:17:11;;;;;;;;;;;;;;;3.84;100.00;96282.13;5076150;28;19951;-78
2022/11/28 01:19:37;;;;;;;;;;;;;;;3.83;100.00;96283.94;5094368;28;19949;-78
2022/11/28 01:22:05;;;;;;;;;;;;;;;3.82;100.00;96279.75;5093488;28;19961;-78
2022/11/28 01:24:31;;;;;;;;;;;;;;;3.80;100.00;96286.91;5093724;28;20325;-79
2022/11/28 01:26:57;;;;;;;;;;;;;;;3.78;100.00;96280.25;5093610;28;19959;-78
2022/11/28 01:29:23;;;;;;;;;;;;;;;3.76;100.00;96277.03;5094172;28;20372;-78
2022/11/28 01:31:49;;;;;;;;;;;;;;;3.74;100.00;96277.25;5094011;28;19952;-78
2022/11/28 01:34:15;;;;;;;;;;;;;;;3.71;100.00;96280.16;5093740;28;20359;-78
2022/11/28 01:36:41;;;;;;;;;;;;;;;3.68;100.00;96284.94;5094098;28;19964;-78
2022/11/28 01:39:07;;;;;;;;;;;;;;;3.68;100.00;96277.94;5094237;28;19950;-78
2022/11/28 01:41:33;;;;;;;;;;;;;;;3.65;100.00;96275.69;5093614;28;20034;-78
2022/11/28 01:44:04;;;;;;;;;;;;;;;3.63;100.00;96283.69;5093054;28;19948;-78
2022/11/28 01:46:30;;;;;;;;;;;;;;;3.64;100.00;96274.09;5094130;28;20042;-78
2022/11/28 01:48:58;;;;;;;;;;;;;;;3.64;100.00;96272.31;5094039;28;19959;-78
2022/11/28 01:51:24;;;;;;;;;;;;;;;3.65;100.00;96265.31;5094087;28;19953;-78
2022/11/28 01:53:50;;;;;;;;;;;;;;;3.63;100.00;96262.09;5093797;28;19998;-79
2022/11/28 01:56:19;;;;;;;;;;;;;;;3.64;100.00;96250.75;5093724;28;19970;-78
2022/11/28 01:58:49;;;;;;;;;;;;;;;3.64;100.00;96255.94;5093533;28;19948;-78
2022/11/28 02:01:15;;;;;;;;;;;;;;;3.64;100.00;96245.56;5094267;28;19960;-78
2022/11/28 02:03:43;;;;;;;;;;;;;;;3.61;100.00;96238.13;5093419;28;19972;-78
2022/11/28 02:06:09;;;;;;;;;;;;;;;3.59;100.00;96246.13;5093522;28;19961;-78
2022/11/28 02:08:35;;;;;;;;;;;;;;;3.61;100.00;96243.31;5093611;28;19953;-78
2022/11/28 02:11:02;;;;;;;;;;;;;;;3.62;100.00;96247.53;5094301;28;19993;-79
2022/11/28 02:13:46;;;;;;;;;;;;;;;3.62;100.00;96245.75;5093430;28;19950;-79
2022/11/28 02:16:20;;;;;;;;;;;;;;;3.62;100.00;96240.56;5093652;28;19947;-78
2022/11/28 02:19:05;;;;;;;;;;;;;;;3.62;100.00;96240.56;5094655;28;19952;-78
2022/11/28 02:21:30;;;;;;;;;;;;;;;3.60;100.00;96226.97;5093502;28;19958;-78
2022/11/28 02:24:22;;;;;;;;;;;;;;;3.61;100.00;96227.78;5093987;28;19950;-78
2022/11/28 02:26:54;;;;;;;;;;;;;;;3.58;100.00;96218.56;5084383;28;20396;-78
2022/11/28 02:29:38;;;;;;;;;;;;;;;3.59;100.00;96215.00;5093601;28;20026;-78
2022/11/28 02:32:18;;;;;;;;;;;;;;;3.61;100.00;96217.41;5093665;28;19946;-78
2022/11/28 02:35:03;;;;;;;;;;;;;;;3.61;100.00;96222.59;5125838;28;19981;-78
2022/11/28 02:37:28;;;;;;;;;;;;;;;3.58;100.00;96215.97;5093171;28;20303;-78
2022/11/28 02:39:54;;;;;;;;;;;;;;;3.57;100.00;96210.97;5097294;28;19962;-79
2022/11/28 02:42:23;;;;;;;;;;;;;;;3.53;100.00;96200.16;5097298;28;19959;-78
2022/11/28 02:45:10;;;;;;;;;;;;;;;3.52;100.00;96208.13;5097070;28;20325;-79
2022/11/28 02:47:39;;;;;;;;;;;;;;;3.46;100.00;96199.25;5097340;28;19947;-78
2022/11/28 02:50:08;;;;;;;;;;;;;;;3.42;100.00;96195.41;5082769;28;19953;-79
2022/11/28 02:52:54;;;;;;;;;;;;;;;3.37;100.00;96195.16;5096496;28;20405;-78
2022/11/28 02:55:20;;;;;;;;;;;;;;;3.36;100.00;96198.72;5095140;28;19967;-78
2022/11/28 02:57:48;;;;;;;;;;;;;;;3.37;100.00;96188.19;5096238;28;19955;-78
2022/11/28 03:00:26;;;;;;;;;;;;;;;3.39;100.00;96196.56;5096892;28;19947;-78
2022/11/28 03:03:07;;;;;;;;;;;;;;;3.41;100.00;96196.41;5096792;28;19952;-78
2022/11/28 03:05:33;;;;;;;;;;;;;;;3.42;100.00;96192.81;5096313;28;20331;-79
2022/11/28 03:08:15;;;;;;;;;;;;;;;3.42;100.00;96188.47;5096581;28;19988;-78
2022/11/28 03:10:49;;;;;;;;;;;;;;;3.43;100.00;96178.88;5097269;28;19956;-78
2022/11/28 03:13:17;;;;;;;;;;;;;;;3.44;100.00;96188.25;5096703;28;19946;-80
2022/11/28 03:16:04;;;;;;;;;;;;;;;3.43;100.00;96190.06;5096425;28;19985;-79
2022/11/28 03:18:36;;;;;;;;;;;;;;;3.43;100.00;96184.06;5096049;28;19945;-80
2022/11/28 03:21:08;;;;;;;;;;;;;;;3.45;100.00;96174.34;5095328;28;19950;-82
2022/11/28 03:23:43;;;;;;;;;;;;;;;3.47;100.00;96177.56;5095310;28;19951;-81
2022/11/28 03:26:17;;;;;;;;;;;;;;;3.48;100.00;96176.56;5097513;28;20323;-79
2022/11/28 03:29:01;;;;;;;;;;;;;;;3.47;100.00;96168.97;5096529;28;19951;-81
2022/11/28 03:31:33;;;;;;;;;;;;;;;3.49;100.00;96169.59;5096345;28;19945;-80
2022/11/28 03:33:59;;;;;;;;;;;;;;;3.49;100.00;96173.00;5096277;28;19968;-79
2022/11/28 03:36:30;;;;;;;;;;;;;;;3.47;100.00;96174.97;5094907;28;19968;-80
2022/11/28 03:39:03;;;;;;;;;;;;;;;3.48;100.00;96178.34;5087456;28;19955;-78
2022/11/28 03:41:38;;;;;;;;;;;;;;;3.46;100.00;96178.50;5096205;28;19941;-78
2022/11/28 03:44:07;;;;;;;;;;;;;;;3.42;100.00;96183.28;5096552;28;20321;-78
2022/11/28 03:46:35;;;;;;;;;;;;;;;3.40;100.00;96169.69;5095894;28;20426;-78
2022/11/28 03:49:01;;;;;;;;;;;;;;;3.39;100.00;96173.25;5093906;28;20303;-79
2022/11/28 03:51:44;;;;;;;;;;;;;;;3.42;100.00;96179.84;5095787;28;19954;-80
2022/11/28 03:54:13;;;;;;;;;;;;;;;3.44;100.00;96167.53;5096357;28;19946;-78
2022/11/28 03:56:43;;;;;;;;;;;;;;;3.45;100.00;96180.31;5095482;28;19962;-80
2022/11/28 03:59:18;;;;;;;;;;;;;;;3.47;100.00;96172.38;5095833;28;20408;-78
2022/11/28 04:01:47;;;;;;;;;;;;;;;3.48;100.00;96170.56;5096156;28;19964;-79
2022/11/28 04:04:14;;;;;;;;;;;;;;;3.48;100.00;96173.97;5095879;28;19958;-80
2022/11/28 04:06:50;;;;;;;;;;;;;;;3.48;100.00;96161.00;5095733;28;20011;-79
2022/11/28 04:09:18;;;;;;;;;;;;;;;3.48;100.00;96160.19;5094651;28;20294;-79
2022/11/28 04:11:53;;;;;;;;;;;;;;;3.47;100.00;96153.41;5094411;28;20322;-79
2022/11/28 04:14:33;;;;;;;;;;;;;;;3.53;100.00;96153.50;5095351;28;19950;-79
2022/11/28 04:17:14;;;;;;;;;;;;;;;3.79;100.00;96150.41;5094871;28;19963;-79
2022/11/28 04:19:47;;;;;;;;;;;;;;;3.87;100.00;96162.47;5095755;28;19949;-78
2022/11/28 04:22:15;;;;;;;;;;;;;;;3.86;100.00;96147.88;5095242;28;20336;-78
2022/11/28 04:24:52;;;;;;;;;;;;;;;3.82;100.00;96149.22;5095319;28;19947;-79
2022/11/28 04:27:22;;;;;;;;;;;;;;;3.76;100.00;96147.34;5093945;28;20403;-78
2022/11/28 04:29:53;;;;;;;;;;;;;;;3.70;100.00;96150.72;5095163;28;19944;-79
2022/11/28 04:32:21;;;;;;;;;;;;;;;3.64;100.00;96150.44;5095237;28;19944;-80
2022/11/28 04:34:49;;;;;;;;;;;;;;;3.62;100.00;96161.97;5095569;28;20642;-79
2022/11/28 04:37:16;;;;;;;;;;;;;;;3.61;100.00;96155.16;5095309;28;19966;-78
2022/11/28 04:39:46;;;;;;;;;;;;;;;3.60;100.00;96151.78;5095035;28;19942;-78
2022/11/28 04:42:29;;;;;;;;;;;;;;;3.60;100.00;96153.56;5095269;28;19954;-82
2022/11/28 04:45:04;;;;;;;;;;;;;;;3.58;100.00;96151.16;5094504;28;20340;-80
2022/11/28 04:47:30;;;;;;;;;;;;;;;3.58;100.00;96153.75;5095152;28;19954;-81
2022/11/28 04:49:56;;;;;;;;;;;;;;;3.59;100.00;96149.34;5095245;28;19983;-81
2022/11/28 04:52:26;;;;;;;;;;;;;;;3.59;100.00;96151.94;5094224;28;20317;-79
2022/11/28 04:54:52;;;;;;;;;;;;;;;3.59;100.00;96152.78;5094734;28;20391;-79
2022/11/28 04:57:18;;;;;;;;;;;;;;;3.58;100.00;96164.13;5094655;28;20078;-77
2022/11/28 04:59:45;;;;;;;;;;;;;;;3.58;100.00;96163.31;5094603;28;19952;-77
2022/11/28 05:02:12;;;;;;;;;;;;;;;3.57;100.00;96165.13;5094524;28;19948;-78
2022/11/28 05:04:38;;;;;;;;;;;;;;;3.57;100.00;96166.88;5094692;28;19958;-78
2022/11/28 05:07:05;;;;;;;;;;;;;;;3.58;100.00;96165.91;5094606;28;19959;-78
2022/11/28 05:09:31;;;;;;;;;;;;;;;3.55;100.00;96161.06;5094903;28;19951;-78
2022/11/28 05:11:57;;;;;;;;;;;;;;;3.55;100.00;96163.66;5094400;28;19944;-78
2022/11/28 05:14:23;;;;;;;;;;;;;;;3.53;100.00;96163.88;5093086;28;19954;-78
2022/11/28 05:16:49;;;;;;;;;;;;;;;3.53;100.00;96150.91;5094256;28;20015;-78
2022/11/28 05:19:15;;;;;;;;;;;;;;;3.53;100.00;96160.44;5094706;28;19946;-78
2022/11/28 05:21:41;;;;;;;;;;;;;;;3.53;100.00;96160.44;5093264;28;20329;-79
2022/11/28 05:24:07;;;;;;;;;;;;;;;3.54;100.00;96164.66;5094141;28;19952;-78
2022/11/28 05:26:34;;;;;;;;;;;;;;;3.54;100.00;96165.47;5094732;28;19953;-78
2022/11/28 05:29:00;;;;;;;;;;;;;;;3.54;100.00;96168.06;5093827;28;19955;-78
2022/11/28 05:31:26;;;;;;;;;;;;;;;3.56;100.00;96175.66;5094712;28;19953;-78
2022/11/28 05:33:53;;;;;;;;;;;;;;;3.57;100.00;96174.66;5093817;28;19977;-79
2022/11/28 05:36:19;;;;;;;;;;;;;;;3.55;100.00;96167.09;5093983;28;20333;-78
2022/11/28 05:38:44;;;;;;;;;;;;;;;3.53;100.00;96171.66;5094034;28;19958;-80
2022/11/28 05:41:17;;;;;;;;;;;;;;;3.54;100.00;96175.03;5092813;28;20000;-79
2022/11/28 05:43:43;;;;;;;;;;;;;;;3.54;100.00;96175.03;5094812;28;19952;-79
2022/11/28 05:46:09;;;;;;;;;;;;;;;3.54;100.00;96170.66;5093677;28;19955;-79
2022/11/28 05:48:35;;;;;;;;;;;;;;;3.55;100.00;96172.28;5084150;28;19956;-79
2022/11/28 05:51:03;;;;;;;;;;;;;;;3.55;100.00;96169.69;5094180;28;20033;-78
2022/11/28 05:53:29;;;;;;;;;;;;;;;3.56;100.00;96152.31;5093812;28;19954;-78
2022/11/28 05:55:55;;;;;;;;;;;;;;;3.56;100.00;96163.50;5093471;28;20009;-78
2022/11/28 05:58:21;;;;;;;;;;;;;;;3.57;100.00;96161.69;5093668;28;19945;-78
2022/11/28 06:00:47;;;;;;;;;;;;;;;3.56;100.00;96158.31;5094329;28;20029;-78
2022/11/28 06:03:12;;;;;;;;;;;;;;;3.56;100.00;96157.50;5093547;28;19958;-79
2022/11/28 06:05:40;;;;;;;;;;;;;;;3.56;100.00;96157.50;5093504;28;19963;-78
2022/11/28 06:08:06;;;;;;;;;;;;;;;3.54;100.00;96154.28;5092673;28;19950;-77
2022/11/28 06:10:32;;;;;;;;;;;;;;;3.53;100.00;96163.88;5093569;28;19948;-77
2022/11/28 06:12:58;;;;;;;;;;;;;;;3.52;100.00;96164.03;5097614;28;19955;-76
2022/11/28 06:15:24;;;;;;;;;;;;;;;3.52;100.00;96158.84;5091259;28;19952;-77
2022/11/28 06:17:50;;;;;;;;;;;;;;;3.48;100.00;96155.00;5098253;28;19994;-77
2022/11/28 06:20:16;;;;;;;;;;;;;;;3.46;100.00;96162.97;5097678;28;19952;-77
2022/11/28 06:22:42;;;;;;;;;;;;;;;3.46;100.00;96160.38;5097701;28;19954;-77
2022/11/28 06:25:08;;;;;;;;;;;;;;;3.47;100.00;96151.63;5096369;28;20077;-77
2022/11/28 06:27:34;;;;;;;;;;;;;;;3.48;100.00;96155.00;5097441;28;20018;-77
2022/11/28 06:30:00;;;;;;;;;;;;;;;3.48;100.00;96150.63;5097804;28;19946;-77
2022/11/28 06:32:26;;;;;;;;;;;;;;;3.49;100.00;96157.44;5096241;28;19954;-77
2022/11/28 06:34:52;;;;;;;;;;;;;;;3.49;100.00;96156.63;5096612;28;20022;-79
2022/11/28 06:37:18;;;;;;;;;;;;;;;3.51;100.00;96152.88;5097331;28;19979;-78
2022/11/28 06:39:44;;;;;;;;;;;;;;;3.51;100.00;96160.66;5079164;28;20337;-78
2022/11/28 06:42:09;;;;;;;;;;;;;;;3.51;100.00;96163.25;5097359;28;19955;-78
2022/11/28 06:44:35;;;;;;;;;;;;;;;3.49;100.00;96159.22;5097335;28;20290;-78
2022/11/28 06:47:01;;;;;;;;;;;;;;;3.49;100.00;96157.44;5095918;28;19978;-79
2022/11/28 06:49:27;;;;;;;;;;;;;;;3.51;100.00;96162.41;5096137;28;19983;-77
2022/11/28 06:51:53;;;;;;;;;;;;;;;3.52;100.00;96169.22;5096454;28;20330;-77
2022/11/28 06:54:19;;;;;;;;;;;;;;;3.51;100.00;96170.19;5095779;28;19957;-78
2022/11/28 06:56:45;;;;;;;;;;;;;;;3.48;100.00;96160.19;5097171;28;19964;-77
2022/11/28 06:59:11;;;;;;;;;;;;;;;3.48;100.00;96173.97;5097243;28;20003;-77
2022/11/28 07:01:37;;;;;;;;;;;;;;;3.47;100.00;96176.75;5096819;28;19946;-77
2022/11/28 07:04:03;;;;;;;;;;;;;;;3.50;100.00;96168.59;5095720;28;20363;-78
2022/11/28 07:06:29;;;;;;;;;;;;;;;3.49;100.00;96170.41;5096789;28;19966;-78
2022/11/28 07:08:56;;;;;;;;;;;;;;;3.51;100.00;96168.44;5097170;28;20325;-77
2022/11/28 07:11:24;;;;;;;;;;;;;;;3.53;100.00;96170.81;5096757;28;19949;-78
2022/11/28 07:13:52;;;;;;;;;;;;;;;3.53;100.00;96163.88;5096509;28;19943;-80
2022/11/28 07:16:20;;;;;;;;;;;;;;;3.54;100.00;96170.66;5096894;28;20407;-79
2022/11/28 07:18:46;;;;;;;;;;;;;;;3.54;100.00;96173.25;5096650;28;19945;-79
2022/11/28 07:21:13;;;;;;;;;;;;;;;3.53;100.00;96176.00;5095220;28;20413;-79
2022/11/28 07:23:39;;;;;;;;;;;;;;;3.55;100.00;96174.03;5095416;28;19949;-79
2022/11/28 07:26:05;;;;;;;;;;;;;;;3.57;100.00;96169.47;5098219;28;19957;-79
2022/11/28 07:28:32;;;;;;;;;;;;;;;3.59;100.00;96177.88;5095401;28;19949;-79
2022/11/28 07:31:06;;;;;;;;;;;;;;;3.61;100.00;96181.09;5096319;28;19955;-79
2022/11/28 07:33:33;;;;;;;;;;;;;;;3.63;100.00;96181.72;5096119;28;20340;-79
2022/11/28 07:36:02;;;;;;;;;;;;;;;3.66;100.00;96177.00;5096399;28;19976;-79
2022/11/28 07:38:28;;;;;;;;;;;;;;;3.68;100.00;96178.59;5096477;28;19950;-79
2022/11/28 07:40:54;;;;;;;;;;;;;;;3.70;100.00;96176.63;5078667;28;20003;-79
2022/11/28 07:43:20;;;;;;;;;;;;;;;3.70;100.00;96190.41;5096053;28;19948;-79
2022/11/28 07:45:46;;;;;;;;;;;;;;;3.73;100.00;96191.81;5096372;28;20492;-79
2022/11/28 07:48:12;;;;;;;;;;;;;;;3.75;100.00;96195.03;5095034;28;19962;-79
2022/11/28 07:50:38;;;;;;;;;;;;;;;3.77;100.00;96195.66;5094290;28;20412;-79
2022/11/28 07:53:04;;;;;;;;;;;;;;;3.80;100.00;96195.28;5096329;28;19959;-79
2022/11/28 07:55:30;;;;;;;;;;;;;;;3.80;100.00;96193.53;5096118;28;20402;-79
2022/11/28 07:57:56;;;;;;;;;;;;;;;3.82;100.00;96190.72;5097550;28;19963;-79
2022/11/28 08:00:22;;;;;;;;;;;;;;;3.83;100.00;96190.56;5098618;28;20009;-79
2022/11/28 08:02:48;;;;;;;;;;;;;;;3.84;100.00;96192.19;5095780;28;19959;-78
2022/11/28 08:05:13;;;;;;;;;;;;;;;3.88;100.00;96190.00;5095464;28;20010;-79
2022/11/28 08:07:39;;;;;;;;;;;;;;;3.91;100.00;96199.25;5096004;28;20009;-80
2022/11/28 08:10:05;;;;;;;;;;;;;;;3.91;100.00;96199.25;5095690;28;19949;-80
2022/11/28 08:12:31;;;;;;;;;;;;;;;3.94;100.00;96201.44;5094638;28;19986;-79
2022/11/28 08:14:57;;;;;;;;;;;;;;;3.96;100.00;96205.47;5094879;28;20389;-79
2022/11/28 08:17:23;;;;;;;;;;;;;;;3.97;99.37;96196.72;5095656;28;19968;-80
2022/11/28 08:19:49;;;;;;;;;;;;;;;3.98;100.00;96197.50;5095321;28;20469;-79
2022/11/28 08:22:15;;;;;;;;;;;;;;;3.97;100.00;96199.31;5098255;28;19946;-78
2022/11/28 08:24:41;;;;;;;;;;;;;;;4.01;100.00;96203.16;5111172;28;19961;-79
2022/11/28 08:27:07;;;;;;;;;;;;;;;4.06;100.00;96202.59;5095667;28;20392;-79
2022/11/28 08:29:33;;;;;;;;;;;;;;;4.09;100.00;96193.63;5094181;28;19971;-79
2022/11/28 08:31:59;;;;;;;;;;;;;;;4.14;100.00;96202.50;5095788;28;20446;-79
2022/11/28 08:34:25;;;;;;;;;;;;;;;4.18;100.00;96197.72;5094875;28;20418;-79
2022/11/28 08:36:51;;;;;;;;;;;;;;;4.22;100.00;96197.19;5093695;28;19975;-78
2022/11/28 08:39:17;;;;;;;;;;;;;;;4.25;100.00;96193.41;5095677;28;19954;-78
2022/11/28 08:41:43;;;;;;;;;;;;;;;4.29;100.00;96193.84;5094986;28;19959;-78
2022/11/28 08:44:09;;;;;;;;;;;;;;;4.29;99.80;96183.47;5095061;28;19962;-78
2022/11/28 08:46:35;;;;;;;;;;;;;;;4.30;100.00;96169.50;5093789;28;19953;-79
2022/11/28 08:49:01;;;;;;;;;;;;;;;4.32;100.00;96167.53;5095323;28;19963;-78
2022/11/28 08:51:28;;;;;;;;;;;;;;;4.36;100.00;96176.53;5095155;28;19951;-78
2022/11/28 08:53:55;;;;;;;;;;;;;;;4.39;100.00;96178.75;5093522;28;19943;-78
2022/11/28 08:56:21;;;;;;;;;;;;;;;4.40;100.00;96178.59;5095000;28;19962;-78
2022/11/28 08:58:46;;;;;;;;;;;;;;;4.42;100.00;96174.00;5094725;28;19999;-78
2022/11/28 09:01:16;;;;;;;;;;;;;;;4.46;100.00;96188.22;5094865;28;19958;-78
2022/11/28 09:03:42;;;;;;;;;;;;;;;4.48;100.00;96194.03;5093560;28;19952;-78
2022/11/28 09:06:08;;;;;;;;;;;;;;;4.51;100.00;96198.06;5098999;28;19944;-79
2022/11/28 09:08:34;;;;;;;;;;;;;;;4.52;99.77;96199.69;5094400;28;19948;-79
2022/11/28 09:11:00;;;;;;;;;;;;;;;4.51;99.93;96205.03;5094438;28;20360;-79
2022/11/28 09:13:26;;;;;;;;;;;;;;;4.51;100.00;96200.66;5094940;28;20059;-78
2022/11/28 09:15:52;;;;;;;;;;;;;;;4.52;99.60;96201.47;5092766;28;19996;-78
2022/11/28 09:18:18;;;;;;;;;;;;;;;4.50;99.27;96195.66;5094069;28;20423;-78
2022/11/28 09:20:44;;;;;;;;;;;;;;;4.48;100.00;96198.44;5093356;28;20046;-78
2022/11/28 09:23:09;;;;;;;;;;;;;;;4.50;100.00;96196.47;5093852;28;20371;-78
2022/11/28 09:25:36;;;;;;;;;;;;;;;4.50;100.00;96191.25;5094053;28;19954;-78
2022/11/28 09:28:02;;;;;;;;;;;;;;;4.56;100.00;96192.31;5094024;28;19959;-78
2022/11/28 09:30:28;;;;;;;;;;;;;;;4.62;100.00;96194.16;5092901;28;19988;-79
2022/11/28 09:32:54;;;;;;;;;;;;;;;4.68;100.00;96180.41;5093859;28;19961;-78
2022/11/28 09:35:20;;;;;;;;;;;;;;;4.72;100.00;96181.66;5094513;28;19976;-79
2022/11/28 09:37:46;;;;;;;;;;;;;;;4.79;100.00;96176.53;5093890;28;19992;-78
2022/11/28 09:40:20;;;;;;;;;;;;;;;4.83;100.00;96178.56;5093326;28;20430;-78
2022/11/28 09:42:46;;;;;;;;;;;;;;;4.91;99.39;96187.19;5094066;28;19951;-78
2022/11/28 09:45:18;;;;;;;;;;;;;;;4.96;100.00;96185.66;5093562;28;19952;-78
2022/11/28 09:47:53;;;;;;;;;;;;;;;5.05;100.00;96184.50;5092283;28;19959;-78
2022/11/28 09:50:24;;;;;;;;;;;;;;;5.13;100.00;96193.19;5092909;28;19951;-78
2022/11/28 09:53:01;;;;;;;;;;;;;;;5.19;99.42;96184.63;5093862;28;19980;-78
2022/11/28 09:55:37;;;;;;;;;;;;;;;5.22;98.84;96184.22;5092384;28;19945;-78
2022/11/28 09:58:12;;;;;;;;;;;;;;;5.27;100.00;96180.06;5093370;28;20351;-78
2022/11/28 10:00:45;;;;;;;;;;;;;;;5.30;98.02;96168.47;5091510;28;19944;-78
2022/11/28 10:03:27;;;;;;;;;;;;;;;5.36;99.36;96174.72;5093904;28;19963;-78
2022/11/28 10:05:53;;;;;;;;;;;;;;;5.41;99.26;96170.53;5093737;28;19953;-79
2022/11/28 10:08:21;;;;;;;;;;;;;;;5.47;99.76;96158.56;5093593;28;20383;-78
2022/11/28 10:11:02;;;;;;;;;;;;;;;5.53;100.00;96164.81;5092440;28;19941;-79
2022/11/28 10:13:46;;;;;;;;;;;;;;;5.59;99.53;96161.44;5092471;28;19958;-78
2022/11/28 10:16:40;;;;;;;;;;;;;;;5.67;99.60;96148.28;5083885;28;19947;-78
2022/11/28 10:19:10;;;;;;;;;;;;;;;5.74;99.63;96148.28;5093676;28;20053;-78
2022/11/28 10:21:48;;;;;;;;;;;;;;;5.80;100.00;96155.31;5094170;28;19951;-78
2022/11/28 10:24:17;;;;;;;;;;;;;;;5.85;97.67;96156.31;5093447;28;19959;-79
2022/11/28 10:26:46;;;;;;;;;;;;;;;5.92;97.70;96169.34;5093394;28;19945;-78
2022/11/28 10:29:22;;;;;;;;;;;;;;;5.96;98.02;96170.59;5093993;28;20018;-78
2022/11/28 10:31:51;;;;;;;;;;;;;;;6.02;97.78;96179.44;5094615;28;19949;-78
2022/11/28 10:34:29;;;;;;;;;;;;;;;6.01;97.62;96177.84;5093391;28;19983;-79
2022/11/28 10:37:14;;;;;;;;;;;;;;;6.01;98.92;96180.44;5080327;28;19975;-79
2022/11/28 10:39:42;;;;;;;;;;;;;;;5.98;96.62;96171.22;5093535;28;19944;-78
2022/11/28 10:42:17;;;;;;;;;;;;;;;5.94;97.19;96163.97;5093693;28;19955;-78
2022/11/28 10:44:52;;;;;;;;;;;;;;;5.92;96.54;96163.34;5093277;28;19942;-78
2022/11/28 10:47:38;;;;;;;;;;;;;;;5.86;97.02;96165.75;5092118;28;19951;-78
2022/11/28 10:50:16;;;;;;;;;;;;;;;5.80;96.63;96163.13;5074850;28;19950;-78
2022/11/28 10:52:50;;;;;;;;;;;;;;;5.86;100.00;96160.53;5092002;28;19951;-76
2022/11/28 10:55:34;;;;;;;;;;;;;;;6.55;100.00;96166.53;5093123;28;19959;-78
2022/11/28 10:58:09;;;;;;;;;;;;;;;6.93;100.00;96162.53;5093520;28;19976;-78
2022/11/28 11:00:36;;;;;;;;;;;;;;;6.86;95.92;96162.53;5097038;28;19944;-78
2022/11/28 11:03:03;;;;;;;;;;;;;;;6.64;95.85;96154.91;5095300;28;19957;-78
2022/11/28 11:05:33;;;;;;;;;;;;;;;6.50;96.71;96161.91;5102927;28;19946;-78
2022/11/28 11:08:14;;;;;;;;;;;;;;;6.41;95.97;96170.13;5104091;28;20123;-78
2022/11/28 11:10:48;;;;;;;;;;;;;;;6.33;96.81;96173.72;5096732;28;19957;-78
2022/11/28 11:13:16;;;;;;;;;;;;;;;6.23;95.03;96173.28;5095509;28;19970;-78
2022/11/28 11:15:44;;;;;;;;;;;;;;;6.16;95.06;96178.47;5096724;28;20384;-78
2022/11/28 11:18:25;;;;;;;;;;;;;;;6.08;92.90;96173.44;5086544;28;19978;-77
2022/11/28 11:21:05;;;;;;;;;;;;;;;6.04;95.45;96174.84;5096503;28;19956;-77
2022/11/28 11:23:30;;;;;;;;;;;;;;;6.03;96.44;96174.03;5089285;28;19946;-78
2022/11/28 11:25:57;;;;;;;;;;;;;;;6.04;96.92;96174.84;5096455;28;19956;-78
2022/11/28 11:28:43;;;;;;;;;;;;;;;6.07;97.40;96177.06;5097007;28;20019;-78
2022/11/28 11:31:33;;;;;;;;;;;;;;;6.08;96.44;96171.66;5078536;28;19950;-78
2022/11/28 11:34:04;;;;;;;;;;;;;;;6.12;97.33;96168.66;5090593;28;20001;-78
2022/11/28 11:36:31;;;;;;;;;;;;;;;6.14;95.73;96169.28;5096252;28;19979;-78
2022/11/28 11:39:09;;;;;;;;;;;;;;;6.15;97.46;96163.06;5095266;28;19956;-78
2022/11/28 11:41:36;;;;;;;;;;;;;;;6.17;97.85;96154.03;5084766;28;20046;-78
2022/11/28 11:44:14;;;;;;;;;;;;;;;6.18;98.11;96147.84;5096140;28;19960;-78
2022/11/28 11:46:53;;;;;;;;;;;;;;;6.19;96.90;96151.25;5086923;28;19963;-78
2022/11/28 11:49:28;;;;;;;;;;;;;;;6.17;97.25;96151.44;5096065;28;19949;-79
2022/11/28 11:51:58;;;;;;;;;;;;;;;6.17;97.05;96148.84;5095958;28;19960;-78
2022/11/28 11:54:24;;;;;;;;;;;;;;;6.19;97.91;96148.63;5082413;28;19956;-78
2022/11/28 11:56:50;;;;;;;;;;;;;;;6.21;98.65;96139.63;5095009;28;19970;-78
2022/11/28 11:59:23;;;;;;;;;;;;;;;6.23;97.30;96142.84;5095725;28;19948;-78
2022/11/28 12:01:51;;;;;;;;;;;;;;;6.25;96.48;96135.63;5096074;28;19945;-78
2022/11/28 12:04:23;;;;;;;;;;;;;;;6.28;98.15;96130.03;5096356;28;19954;-78
2022/11/28 12:06:50;;;;;;;;;;;;;;;6.32;97.44;96124.44;5094487;28;20425;-78
2022/11/28 12:09:25;;;;;;;;;;;;;;;6.36;97.65;96128.22;5093524;28;19954;-78
2022/11/28 12:11:55;;;;;;;;;;;;;;;6.39;98.20;96133.06;5096078;28;19953;-78
2022/11/28 12:14:25;;;;;;;;;;;;;;;6.42;99.71;96143.06;5095686;28;19950;-78
2022/11/28 12:17:04;;;;;;;;;;;;;;;6.43;99.14;96134.28;5095620;28;19971;-78
2022/11/28 12:19:49;;;;;;;;;;;;;;;6.43;99.28;96136.88;5094333;28;19962;-77
2022/11/28 12:22:14;;;;;;;;;;;;;;;6.44;100.00;96139.25;5087908;28;20353;-77
2022/11/28 12:24:46;;;;;;;;;;;;;;;6.42;100.00;96130.84;5095531;28;19954;-77
2022/11/28 12:27:26;;;;;;;;;;;;;;;6.41;99.85;96128.47;5080050;28;19961;-78
2022/11/28 12:29:54;;;;;;;;;;;;;;;6.41;100.00;96128.47;5095488;28;19948;-78
2022/11/28 12:32:33;;;;;;;;;;;;;;;6.42;100.00;96125.63;5077279;28;20398;-78
2022/11/28 12:35:14;;;;;;;;;;;;;;;6.43;100.00;96116.84;5094200;28;19982;-77
2022/11/28 12:37:52;;;;;;;;;;;;;;;6.45;100.00;96114.81;5077066;28;19975;-77
2022/11/28 12:40:18;;;;;;;;;;;;;;;6.46;100.00;96113.03;5095076;28;20397;-78
2022/11/28 12:43:10;;;;;;;;;;;;;;;6.50;100.00;96111.63;5093772;28;19944;-77
2022/11/28 12:45:36;;;;;;;;;;;;;;;6.55;100.00;96105.81;5078930;28;19971;-78
2022/11/28 12:48:15;;;;;;;;;;;;;;;6.54;100.00;96099.81;5093780;28;19947;-77
2022/11/28 12:50:42;;;;;;;;;;;;;;;6.55;100.00;96098.81;5094819;28;19952;-76
2022/11/28 12:53:27;;;;;;;;;;;;;;;6.58;100.00;96098.41;5095010;28;19948;-76
2022/11/28 12:56:00;;;;;;;;;;;;;;;6.63;100.00;96097.78;5081582;28;20403;-77
2022/11/28 12:58:26;;;;;;;;;;;;;;;6.66;100.00;96089.59;5093489;28;20430;-77
2022/11/28 13:01:01;;;;;;;;;;;;;;;6.68;100.00;96095.41;5094825;28;19944;-77